sensor_id;sensor_type;location;lat;lon;timestamp;pressure;altitude;pressure_sealevel;temperature;humidity
25722;BME280;13578;53.450;15.496;2022-11-20T00:02:52;99163.81;;;-1.14;100.00
25722;BME280;13578;53.450;15.496;2022-11-20T00:05:53;99164.69;;;-1.13;100.00
25722;BME280;13578;53.450;15.496;2022-11-20T00:08:58;99162.69;;;-1.09;100.00
25722;BME280;13578;53.450;15.496;2022-11-20T00:12:00;99156.78;;;-1.16;100.00
25722;BME280;13578;53.450;15.496;2022-11-20T00:15:00;99161.03;;;-1.12;100.00
25722;BME280;13578;53.450;15.496;2022-11-20T00:18:01;99154.81;;;-1.13;100.00
25722;BME280;13578;53.450;15.496;2022-11-20T00:21:09;99153.19;;;-1.17;100.00
25722;BME280;13578;53.450;15.496;2022-11-20T00:24:10;99159.31;;;-1.13;100.00
25722;BME280;13578;53.450;15.496;2022-11-20T00:27:11;99164.94;;;-1.18;100.00
25722;BME280;13578;53.450;15.496;2022-11-20T00:30:12;99161.00;;;-1.10;100.00
25722;BME280;13578;53.450;15.496;2022-11-20T00:33:13;99161.13;;;-1.14;100.00
25722;BME280;13578;53.450;15.496;2022-11-20T00:36:16;99156.59;;;-1.13;100.00
25722;BME280;13578;53.450;15.496;2022-11-20T00:39:17;99162.78;;;-1.11;100.00
25722;BME280;13578;53.450;15.496;2022-11-20T00:42:17;99166.59;;;-1.15;100.00
25722;BME280;13578;53.450;15.496;2022-11-20T00:45:18;99165.00;;;-1.19;100.00
25722;BME280;13578;53.450;15.496;2022-11-20T00:48:19;99169.53;;;-1.20;100.00
25722;BME280;13578;53.450;15.496;2022-11-20T00:51:21;99171.44;;;-1.22;100.00
25722;BME280;13578;53.450;15.496;2022-11-20T00:54:23;99171.09;;;-1.16;100.00
25722;BME280;13578;53.450;15.496;2022-11-20T00:57:23;99168.50;;;-1.17;100.00
25722;BME280;13578;53.450;15.496;2022-11-20T01:00:24;99163.44;;;-1.23;100.00
25722;BME280;13578;53.450;15.496;2022-11-20T01:03:24;99160.81;;;-1.42;100.00
25722;BME280;13578;53.450;15.496;2022-11-20T01:06:30;99166.19;;;-1.42;100.00
25722;BME280;13578;53.450;15.496;2022-11-20T01:09:31;99172.53;;;-1.44;100.00
25722;BME280;13578;53.450;15.496;2022-11-20T01:12:32;99167.00;;;-1.40;100.00
25722;BME280;13578;53.450;15.496;2022-11-20T01:15:33;99160.81;;;-1.42;100.00
25722;BME280;13578;53.450;15.496;2022-11-20T01:18:35;99161.34;;;-1.36;100.00
25722;BME280;13578;53.450;15.496;2022-11-20T01:21:39;99150.34;;;-1.31;100.00
25722;BME280;13578;53.450;15.496;2022-11-20T01:24:40;99150.06;;;-1.25;100.00
25722;BME280;13578;53.450;15.496;2022-11-20T01:27:41;99157.44;;;-1.29;100.00
25722;BME280;13578;53.450;15.496;2022-11-20T01:30:41;99161.84;;;-1.28;100.00
25722;BME280;13578;53.450;15.496;2022-11-20T01:33:43;99163.53;;;-1.25;100.00
25722;BME280;13578;53.450;15.496;2022-11-20T01:36:44;99147.44;;;-1.26;100.00
25722;BME280;13578;53.450;15.496;2022-11-20T01:39:46;99150.84;;;-1.23;100.00
25722;BME280;13578;53.450;15.496;2022-11-20T01:42:57;99160.56;;;-1.20;100.00
25722;BME280;13578;53.450;15.496;2022-11-20T01:46:20;99154.31;;;-1.21;100.00
25722;BME280;13578;53.450;15.496;2022-11-20T01:49:34;99157.09;;;-1.22;100.00
25722;BME280;13578;53.450;15.496;2022-11-20T01:52:50;99155.91;;;-1.17;100.00
25722;BME280;13578;53.450;15.496;2022-11-20T01:55:53;99158.59;;;-1.17;100.00
25722;BME280;13578;53.450;15.496;2022-11-20T01:58:58;99155.84;;;-1.15;100.00
25722;BME280;13578;53.450;15.496;2022-11-20T02:02:00;99148.47;;;-1.12;100.00
25722;BME280;13578;53.450;15.496;2022-11-20T02:05:09;99142.28;;;-1.14;100.00
25722;BME280;13578;53.450;15.496;2022-11-20T02:08:12;99136.56;;;-1.07;100.00
25722;BME280;13578;53.450;15.496;2022-11-20T02:11:13;99143.69;;;-1.06;100.00
25722;BME280;13578;53.450;15.496;2022-11-20T02:14:14;99134.81;;;-1.08;100.00
25722;BME280;13578;53.450;15.496;2022-11-20T02:17:15;99131.38;;;-1.10;100.00
25722;BME280;13578;53.450;15.496;2022-11-20T02:20:16;99132.78;;;-1.21;100.00
25722;BME280;13578;53.450;15.496;2022-11-20T02:23:32;99128.19;;;-1.19;100.00
25722;BME280;13578;53.450;15.496;2022-11-20T02:29:53;99133.59;;;-1.19;100.00
25722;BME280;13578;53.450;15.496;2022-11-20T02:32:54;99124.38;;;-1.15;100.00
25722;BME280;13578;53.450;15.496;2022-11-20T02:35:54;99127.41;;;-1.21;100.00
25722;BME280;13578;53.450;15.496;2022-11-20T02:38:55;99122.09;;;-1.22;100.00
25722;BME280;13578;53.450;15.496;2022-11-20T02:41:56;99121.78;;;-1.16;100.00
25722;BME280;13578;53.450;15.496;2022-11-20T02:44:57;99123.59;;;-1.17;100.00
25722;BME280;13578;53.450;15.496;2022-11-20T02:47:58;99120.03;;;-1.17;100.00
25722;BME280;13578;53.450;15.496;2022-11-20T02:50:58;99124.47;;;-1.16;100.00
25722;BME280;13578;53.450;15.496;2022-11-20T02:53:59;99115.50;;;-1.17;100.00
25722;BME280;13578;53.450;15.496;2022-11-20T02:57:00;99122.81;;;-1.19;100.00
25722;BME280;13578;53.450;15.496;2022-11-20T03:00:00;99120.44;;;-1.25;100.00
25722;BME280;13578;53.450;15.496;2022-11-20T03:03:01;99120.88;;;-1.17;100.00
25722;BME280;13578;53.450;15.496;2022-11-20T03:06:02;99121.88;;;-1.18;100.00
25722;BME280;13578;53.450;15.496;2022-11-20T03:09:02;99118.03;;;-1.14;100.00
25722;BME280;13578;53.450;15.496;2022-11-20T03:12:03;99120.59;;;-1.10;100.00
25722;BME280;13578;53.450;15.496;2022-11-20T03:15:04;99118.19;;;-1.17;100.00
25722;BME280;13578;53.450;15.496;2022-11-20T03:18:05;99107.19;;;-1.12;100.00
25722;BME280;13578;53.450;15.496;2022-11-20T03:21:06;99114.22;;;-1.09;100.00
25722;BME280;13578;53.450;15.496;2022-11-20T03:24:07;99112.81;;;-1.17;100.00
25722;BME280;13578;53.450;15.496;2022-11-20T03:27:08;99107.19;;;-1.12;100.00
25722;BME280;13578;53.450;15.496;2022-11-20T03:30:09;99106.16;;;-1.09;100.00
25722;BME280;13578;53.450;15.496;2022-11-20T03:33:10;99104.97;;;-1.04;100.00
25722;BME280;13578;53.450;15.496;2022-11-20T03:36:12;99099.81;;;-1.08;100.00
25722;BME280;13578;53.450;15.496;2022-11-20T03:39:13;99095.56;;;-1.13;100.00
25722;BME280;13578;53.450;15.496;2022-11-20T03:42:14;99091.44;;;-1.20;100.00
25722;BME280;13578;53.450;15.496;2022-11-20T03:45:32;99091.25;;;-1.17;100.00
25722;BME280;13578;53.450;15.496;2022-11-20T03:48:33;99093.66;;;-1.10;100.00
25722;BME280;13578;53.450;15.496;2022-11-20T03:51:35;99088.09;;;-1.07;100.00
25722;BME280;13578;53.450;15.496;2022-11-20T03:54:36;99092.63;;;-1.08;100.00
25722;BME280;13578;53.450;15.496;2022-11-20T03:57:37;99095.13;;;-1.05;100.00
25722;BME280;13578;53.450;15.496;2022-11-20T04:00:37;99085.00;;;-1.00;100.00
25722;BME280;13578;53.450;15.496;2022-11-20T04:03:39;99083.25;;;-1.01;100.00
25722;BME280;13578;53.450;15.496;2022-11-20T04:06:40;99090.44;;;-1.01;100.00
25722;BME280;13578;53.450;15.496;2022-11-20T04:09:41;99085.53;;;-0.93;100.00
25722;BME280;13578;53.450;15.496;2022-11-20T04:12:41;99087.41;;;-0.95;100.00
25722;BME280;13578;53.450;15.496;2022-11-20T04:15:42;99085.69;;;-0.96;100.00
25722;BME280;13578;53.450;15.496;2022-11-20T04:18:42;99083.63;;;-0.91;100.00
25722;BME280;13578;53.450;15.496;2022-11-20T04:21:44;99074.75;;;-0.93;100.00
25722;BME280;13578;53.450;15.496;2022-11-20T04:24:44;99073.47;;;-0.86;100.00
25722;BME280;13578;53.450;15.496;2022-11-20T04:27:45;99063.88;;;-0.91;100.00
25722;BME280;13578;53.450;15.496;2022-11-20T04:30:46;99068.50;;;-0.93;100.00
25722;BME280;13578;53.450;15.496;2022-11-20T04:33:46;99073.56;;;-0.87;100.00
25722;BME280;13578;53.450;15.496;2022-11-20T04:36:47;99065.72;;;-0.92;100.00
25722;BME280;13578;53.450;15.496;2022-11-20T04:39:48;99067.63;;;-0.94;100.00
25722;BME280;13578;53.450;15.496;2022-11-20T04:42:48;99069.03;;;-0.87;100.00
25722;BME280;13578;53.450;15.496;2022-11-20T04:45:56;99060.94;;;-0.87;100.00
25722;BME280;13578;53.450;15.496;2022-11-20T04:48:58;99052.69;;;-0.84;100.00
25722;BME280;13578;53.450;15.496;2022-11-20T04:51:59;99059.97;;;-0.86;100.00
25722;BME280;13578;53.450;15.496;2022-11-20T04:55:00;99056.00;;;-0.78;100.00
25722;BME280;13578;53.450;15.496;2022-11-20T04:58:00;99052.50;;;-0.81;100.00
25722;BME280;13578;53.450;15.496;2022-11-20T05:01:03;99045.22;;;-0.78;100.00
25722;BME280;13578;53.450;15.496;2022-11-20T05:04:04;99050.44;;;-0.75;100.00
25722;BME280;13578;53.450;15.496;2022-11-20T05:07:05;99049.56;;;-0.76;100.00
25722;BME280;13578;53.450;15.496;2022-11-20T05:10:06;99047.50;;;-0.71;100.00
25722;BME280;13578;53.450;15.496;2022-11-20T05:13:07;99049.22;;;-0.70;100.00
25722;BME280;13578;53.450;15.496;2022-11-20T05:16:28;99044.88;;;-0.72;100.00
25722;BME280;13578;53.450;15.496;2022-11-20T05:19:28;99048.91;;;-0.63;100.00
25722;BME280;13578;53.450;15.496;2022-11-20T05:22:29;99045.56;;;-0.69;100.00
25722;BME280;13578;53.450;15.496;2022-11-20T05:25:29;99049.22;;;-0.70;100.00
25722;BME280;13578;53.450;15.496;2022-11-20T05:28:31;99044.56;;;-0.66;100.00
25722;BME280;13578;53.450;15.496;2022-11-20T05:31:32;99052.44;;;-0.63;100.00
25722;BME280;13578;53.450;15.496;2022-11-20T05:34:33;99059.34;;;-0.57;100.00
25722;BME280;13578;53.450;15.496;2022-11-20T05:37:33;99059.25;;;-0.56;100.00
25722;BME280;13578;53.450;15.496;2022-11-20T05:40:34;99043.66;;;-0.51;100.00
25722;BME280;13578;53.450;15.496;2022-11-20T05:43:36;99054.53;;;-0.52;100.00
25722;BME280;13578;53.450;15.496;2022-11-20T05:46:37;99049.25;;;-0.54;100.00
25722;BME280;13578;53.450;15.496;2022-11-20T05:49:37;99052.53;;;-0.49;100.00
25722;BME280;13578;53.450;15.496;2022-11-20T05:52:38;99046.38;;;-0.51;100.00
25722;BME280;13578;53.450;15.496;2022-11-20T05:55:38;99037.41;;;-0.51;100.00
25722;BME280;13578;53.450;15.496;2022-11-20T05:58:42;99029.06;;;-0.46;100.00
25722;BME280;13578;53.450;15.496;2022-11-20T06:01:43;99037.97;;;-0.44;100.00
25722;BME280;13578;53.450;15.496;2022-11-20T06:04:44;99033.88;;;-0.52;100.00
25722;BME280;13578;53.450;15.496;2022-11-20T06:07:44;99027.16;;;-0.44;100.00
25722;BME280;13578;53.450;15.496;2022-11-20T06:10:45;99033.69;;;-0.49;100.00
25722;BME280;13578;53.450;15.496;2022-11-20T06:13:46;99040.81;;;-0.47;100.00
25722;BME280;13578;53.450;15.496;2022-11-20T06:16:47;99050.66;;;-0.46;100.00
25722;BME280;13578;53.450;15.496;2022-11-20T06:19:47;99034.63;;;-0.50;100.00
25722;BME280;13578;53.450;15.496;2022-11-20T06:22:48;99028.38;;;-0.50;100.00
25722;BME280;13578;53.450;15.496;2022-11-20T06:25:48;99030.81;;;-0.45;100.00
25722;BME280;13578;53.450;15.496;2022-11-20T06:28:50;99031.94;;;-0.50;100.00
25722;BME280;13578;53.450;15.496;2022-11-20T06:31:50;99029.22;;;-0.50;100.00
25722;BME280;13578;53.450;15.496;2022-11-20T06:34:51;99028.47;;;-0.52;100.00
25722;BME280;13578;53.450;15.496;2022-11-20T06:37:52;99029.22;;;-0.50;100.00
25722;BME280;13578;53.450;15.496;2022-11-20T06:40:53;99031.19;;;-0.52;100.00
25722;BME280;13578;53.450;15.496;2022-11-20T06:43:53;99026.72;;;-0.53;100.00
25722;BME280;13578;53.450;15.496;2022-11-20T06:46:54;99030.72;;;-0.44;100.00
25722;BME280;13578;53.450;15.496;2022-11-20T06:49:55;99023.94;;;-0.51;100.00
25722;BME280;13578;53.450;15.496;2022-11-20T06:52:55;99029.22;;;-0.50;100.00
25722;BME280;13578;53.450;15.496;2022-11-20T06:55:57;99028.13;;;-0.45;100.00
25722;BME280;13578;53.450;15.496;2022-11-20T06:59:04;99022.63;;;-0.44;100.00
25722;BME280;13578;53.450;15.496;2022-11-20T07:02:05;99015.59;;;-0.46;100.00
25722;BME280;13578;53.450;15.496;2022-11-20T07:05:06;99017.16;;;-0.42;100.00
25722;BME280;13578;53.450;15.496;2022-11-20T07:08:07;99009.31;;;-0.47;100.00
25722;BME280;13578;53.450;15.496;2022-11-20T07:11:10;99013.06;;;-0.50;100.00
25722;BME280;13578;53.450;15.496;2022-11-20T07:14:12;99013.50;;;-0.41;100.00
25722;BME280;13578;53.450;15.496;2022-11-20T07:17:12;99005.41;;;-0.41;100.00
25722;BME280;13578;53.450;15.496;2022-11-20T07:20:14;99009.06;;;-0.42;100.00
25722;BME280;13578;53.450;15.496;2022-11-20T07:23:14;99013.59;;;-0.43;100.00
25722;BME280;13578;53.450;15.496;2022-11-20T07:26:15;99004.13;;;-0.50;100.00
25722;BME280;13578;53.450;15.496;2022-11-20T07:29:16;99011.00;;;-0.44;100.00
25722;BME280;13578;53.450;15.496;2022-11-20T07:32:17;99008.38;;;-0.46;100.00
25722;BME280;13578;53.450;15.496;2022-11-20T07:35:18;99002.97;;;-0.46;100.00
25722;BME280;13578;53.450;15.496;2022-11-20T07:38:19;99000.91;;;-0.41;100.00
25722;BME280;13578;53.450;15.496;2022-11-20T07:41:19;98999.91;;;-0.40;100.00
25722;BME280;13578;53.450;15.496;2022-11-20T07:44:20;98996.53;;;-0.43;100.00
25722;BME280;13578;53.450;15.496;2022-11-20T07:47:20;98999.41;;;-0.30;100.00
25722;BME280;13578;53.450;15.496;2022-11-20T07:50:21;98998.81;;;-0.36;100.00
25722;BME280;13578;53.450;15.496;2022-11-20T07:53:22;98991.84;;;-0.40;100.00
25722;BME280;13578;53.450;15.496;2022-11-20T07:56:23;99000.53;;;-0.35;100.00
25722;BME280;13578;53.450;15.496;2022-11-20T07:59:24;98999.13;;;-0.26;100.00
25722;BME280;13578;53.450;15.496;2022-11-20T08:02:25;99001.56;;;-0.21;100.00
25722;BME280;13578;53.450;15.496;2022-11-20T08:05:25;98995.59;;;-0.26;100.00
25722;BME280;13578;53.450;15.496;2022-11-20T08:08:27;98998.06;;;-0.23;100.00
25722;BME280;13578;53.450;15.496;2022-11-20T08:11:28;98998.75;;;-0.20;100.00
25722;BME280;13578;53.450;15.496;2022-11-20T08:14:47;99007.75;;;-0.19;100.00
25722;BME280;13578;53.450;15.496;2022-11-20T08:17:48;98995.72;;;-0.13;100.00
25722;BME280;13578;53.450;15.496;2022-11-20T08:20:48;99001.31;;;-0.33;100.00
25722;BME280;13578;53.450;15.496;2022-11-20T08:23:49;98995.84;;;-0.31;100.00
25722;BME280;13578;53.450;15.496;2022-11-20T08:26:49;98987.31;;;-0.39;100.00
25722;BME280;13578;53.450;15.496;2022-11-20T08:29:50;98979.75;;;-0.49;100.00
25722;BME280;13578;53.450;15.496;2022-11-20T08:32:51;98990.97;;;-0.40;100.00
25722;BME280;13578;53.450;15.496;2022-11-20T08:35:51;98984.09;;;-0.30;100.00
25722;BME280;13578;53.450;15.496;2022-11-20T08:38:53;98984.84;;;-0.28;100.00
25722;BME280;13578;53.450;15.496;2022-11-20T08:41:54;98986.97;;;-0.33;100.00
25722;BME280;13578;53.450;15.496;2022-11-20T08:44:55;98992.34;;;-0.33;100.00
25722;BME280;13578;53.450;15.496;2022-11-20T08:48:00;98985.31;;;-0.36;100.00
25722;BME280;13578;53.450;15.496;2022-11-20T08:51:01;98982.78;;;-0.39;100.00
25722;BME280;13578;53.450;15.496;2022-11-20T08:54:02;98976.53;;;-0.39;100.00
25722;BME280;13578;53.450;15.496;2022-11-20T08:57:03;98984.84;;;-0.28;100.00
25722;BME280;13578;53.450;15.496;2022-11-20T09:00:05;98979.09;;;-0.22;100.00
25722;BME280;13578;53.450;15.496;2022-11-20T09:03:06;98987.28;;;-0.23;100.00
25722;BME280;13578;53.450;15.496;2022-11-20T09:06:07;98984.16;;;-0.15;100.00
25722;BME280;13578;53.450;15.496;2022-11-20T09:09:08;98984.31;;;-0.19;100.00
25722;BME280;13578;53.450;15.496;2022-11-20T09:12:08;98987.72;;;-0.15;100.00
25722;BME280;13578;53.450;15.496;2022-11-20T09:15:09;98981.22;;;-0.27;100.00
25722;BME280;13578;53.450;15.496;2022-11-20T09:18:10;98978.72;;;-0.30;100.00
25722;BME280;13578;53.450;15.496;2022-11-20T09:21:12;98987.03;;;-0.19;100.00
25722;BME280;13578;53.450;15.496;2022-11-20T09:24:12;98984.66;;;-0.09;100.00
25722;BME280;13578;53.450;15.496;2022-11-20T09:27:13;98982.22;;;-0.13;100.00
25722;BME280;13578;53.450;15.496;2022-11-20T09:30:14;98988.22;;;-0.08;100.00
25722;BME280;13578;53.450;15.496;2022-11-20T09:33:15;98976.97;;;-0.01;100.00
25722;BME280;13578;53.450;15.496;2022-11-20T09:36:16;98977.88;;;-0.16;100.00
25722;BME280;13578;53.450;15.496;2022-11-20T09:39:18;98971.63;;;-0.17;100.00
25722;BME280;13578;53.450;15.496;2022-11-20T09:46:09;98961.44;;;-0.11;100.00
25722;BME280;13578;53.450;15.496;2022-11-20T09:55:55;98962.75;;;-0.19;100.00
25722;BME280;13578;53.450;15.496;2022-11-20T09:59:03;98954.97;;;-0.09;100.00
25722;BME280;13578;53.450;15.496;2022-11-20T10:02:27;98959.69;;;-0.12;100.00
25722;BME280;13578;53.450;15.496;2022-11-20T10:05:45;98956.41;;;-0.18;100.00
25722;BME280;13578;53.450;15.496;2022-11-20T10:09:06;98958.03;;;-0.15;100.00
25722;BME280;13578;53.450;15.496;2022-11-20T10:12:27;98959.94;;;-0.17;100.00
25722;BME280;13578;53.450;15.496;2022-11-20T10:16:16;98952.53;;;-0.13;100.00
25722;BME280;13578;53.450;15.496;2022-11-20T10:26:03;98947.75;;;-0.39;100.00
25722;BME280;13578;53.450;15.496;2022-11-20T10:32:17;98947.53;;;-0.20;100.00
25722;BME280;13578;53.450;15.496;2022-11-20T10:35:23;98943.97;;;-0.20;100.00
25722;BME280;13578;53.450;15.496;2022-11-20T10:38:25;98946.41;;;-0.15;100.00
25722;BME280;13578;53.450;15.496;2022-11-20T10:41:30;98948.09;;;-0.14;100.00
25722;BME280;13578;53.450;15.496;2022-11-20T10:44:33;98941.59;;;-0.10;100.00
25722;BME280;13578;53.450;15.496;2022-11-20T10:47:54;98938.47;;;-0.19;100.00
25722;BME280;13578;53.450;15.496;2022-11-20T10:51:15;98940.13;;;-0.16;100.00
25722;BME280;13578;53.450;15.496;2022-11-20T11:00:50;98929.13;;;-0.27;100.00
25722;BME280;13578;53.450;15.496;2022-11-20T11:03:51;98933.03;;;-0.33;100.00
25722;BME280;13578;53.450;15.496;2022-11-20T11:06:56;98936.19;;;-0.10;100.00
25722;BME280;13578;53.450;15.496;2022-11-20T11:09:59;98925.16;;;-0.22;100.00
25722;BME280;13578;53.450;15.496;2022-11-20T11:12:59;98929.44;;;-0.18;100.00
25722;BME280;13578;53.450;15.496;2022-11-20T11:16:00;98922.19;;;-0.17;100.00
25722;BME280;13578;53.450;15.496;2022-11-20T11:19:19;98927.63;;;-0.33;100.00
25722;BME280;13578;53.450;15.496;2022-11-20T11:22:19;98917.00;;;-0.20;100.00
25722;BME280;13578;53.450;15.496;2022-11-20T11:28:28;98925.84;;;-0.18;100.00
25722;BME280;13578;53.450;15.496;2022-11-20T11:31:30;98921.50;;;-0.21;100.00
25722;BME280;13578;53.450;15.496;2022-11-20T11:34:31;98920.94;;;-0.26;100.00
25722;BME280;13578;53.450;15.496;2022-11-20T11:37:37;98921.50;;;-0.21;100.00
25722;BME280;13578;53.450;15.496;2022-11-20T11:40:39;98917.69;;;-0.17;100.00
25722;BME280;13578;53.450;15.496;2022-11-20T11:43:53;98915.63;;;-0.27;100.00
25722;BME280;13578;53.450;15.496;2022-11-20T11:50:49;98913.03;;;-0.14;100.00
25722;BME280;13578;53.450;15.496;2022-11-20T11:53:50;98911.72;;;-0.07;100.00
25722;BME280;13578;53.450;15.496;2022-11-20T11:56:51;98911.50;;;-0.19;100.00
25722;BME280;13578;53.450;15.496;2022-11-20T12:00:08;98914.75;;;-0.28;100.00
25722;BME280;13578;53.450;15.496;2022-11-20T12:03:36;98911.59;;;-0.20;100.00
25722;BME280;13578;53.450;15.496;2022-11-20T12:06:39;98906.97;;;-0.18;100.00
25722;BME280;13578;53.450;15.496;2022-11-20T12:09:46;98906.59;;;-0.26;100.00
25722;BME280;13578;53.450;15.496;2022-11-20T12:13:03;98894.50;;;-0.35;100.00
25722;BME280;13578;53.450;15.496;2022-11-20T12:16:04;98887.09;;;-0.32;100.00
25722;BME280;13578;53.450;15.496;2022-11-20T12:19:11;98888.06;;;-0.33;100.00
25722;BME280;13578;53.450;15.496;2022-11-20T12:25:33;98883.22;;;-0.42;100.00
25722;BME280;13578;53.450;15.496;2022-11-20T12:28:38;98881.50;;;-0.43;100.00
25722;BME280;13578;53.450;15.496;2022-11-20T12:32:31;98882.63;;;-0.47;100.00
25722;BME280;13578;53.450;15.496;2022-11-20T12:41:51;98872.34;;;-0.40;100.00
25722;BME280;13578;53.450;15.496;2022-11-20T12:54:47;98867.88;;;-0.56;100.00
25722;BME280;13578;53.450;15.496;2022-11-20T12:58:09;98855.75;;;-0.49;100.00
25722;BME280;13578;53.450;15.496;2022-11-20T13:01:34;98856.53;;;-0.46;100.00
25722;BME280;13578;53.450;15.496;2022-11-20T13:08:40;98851.00;;;-0.59;100.00
25722;BME280;13578;53.450;15.496;2022-11-20T13:15:05;98846.66;;;-0.62;100.00
25722;BME280;13578;53.450;15.496;2022-11-20T13:18:12;98835.72;;;-0.59;100.00
25722;BME280;13578;53.450;15.496;2022-11-20T13:21:43;98842.34;;;-0.65;100.00
25722;BME280;13578;53.450;15.496;2022-11-20T13:24:50;98834.56;;;-0.55;100.00
25722;BME280;13578;53.450;15.496;2022-11-20T13:27:51;98832.19;;;-0.45;100.00
25722;BME280;13578;53.450;15.496;2022-11-20T13:30:53;98828.63;;;-0.45;100.00
25722;BME280;13578;53.450;15.496;2022-11-20T13:33:55;98830.22;;;-0.57;100.00
25722;BME280;13578;53.450;15.496;2022-11-20T13:36:58;98828.81;;;-0.49;100.00
25722;BME280;13578;53.450;15.496;2022-11-20T13:43:34;98834.97;;;-0.46;100.00
25722;BME280;13578;53.450;15.496;2022-11-20T13:46:46;98824.97;;;-0.44;100.00
25722;BME280;13578;53.450;15.496;2022-11-20T13:49:47;98820.91;;;-0.52;100.00
25722;BME280;13578;53.450;15.496;2022-11-20T13:56:34;98825.94;;;-0.45;100.00
25722;BME280;13578;53.450;15.496;2022-11-20T14:03:21;98818.94;;;-0.64;100.00
25722;BME280;13578;53.450;15.496;2022-11-20T14:09:30;98810.31;;;-0.85;100.00
25722;BME280;13578;53.450;15.496;2022-11-20T14:12:33;98804.94;;;-0.85;100.00
25722;BME280;13578;53.450;15.496;2022-11-20T14:15:34;98806.19;;;-0.76;100.00
25722;BME280;13578;53.450;15.496;2022-11-20T14:18:36;98804.63;;;-0.81;100.00
25722;BME280;13578;53.450;15.496;2022-11-20T14:21:37;98797.88;;;-0.88;100.00
25722;BME280;13578;53.450;15.496;2022-11-20T14:24:38;98798.75;;;-0.87;100.00
25722;BME280;13578;53.450;15.496;2022-11-20T14:27:40;98793.38;;;-0.87;100.00
25722;BME280;13578;53.450;15.496;2022-11-20T14:30:46;98793.16;;;-0.84;100.00
25722;BME280;13578;53.450;15.496;2022-11-20T14:33:47;98797.53;;;-0.82;100.00
25722;BME280;13578;53.450;15.496;2022-11-20T14:37:00;98788.28;;;-0.77;100.00
25722;BME280;13578;53.450;15.496;2022-11-20T14:40:01;98793.53;;;-0.90;100.00
25722;BME280;13578;53.450;15.496;2022-11-20T14:43:15;98791.09;;;-0.95;100.00
25722;BME280;13578;53.450;15.496;2022-11-20T14:46:17;98792.16;;;-0.82;100.00
25722;BME280;13578;53.450;15.496;2022-11-20T14:49:18;98789.19;;;-0.93;100.00
25722;BME280;13578;53.450;15.496;2022-11-20T14:52:24;98778.75;;;-0.83;100.00
25722;BME280;13578;53.450;15.496;2022-11-20T14:55:26;98788.25;;;-0.92;100.00
25722;BME280;13578;53.450;15.496;2022-11-20T14:58:30;98789.56;;;-0.99;100.00
25722;BME280;13578;53.450;15.496;2022-11-20T15:01:32;98784.19;;;-0.99;100.00
25722;BME280;13578;53.450;15.496;2022-11-20T15:04:45;98778.97;;;-1.02;100.00
25722;BME280;13578;53.450;15.496;2022-11-20T15:08:07;98783.03;;;-0.95;100.00
25722;BME280;13578;53.450;15.496;2022-11-20T15:11:18;98780.69;;;-1.01;100.00
25722;BME280;13578;53.450;15.496;2022-11-20T15:14:20;98777.56;;;-0.93;100.00
25722;BME280;13578;53.450;15.496;2022-11-20T15:17:20;98769.75;;;-0.98;100.00
25722;BME280;13578;53.450;15.496;2022-11-20T15:20:25;98771.50;;;-0.97;100.00
25722;BME280;13578;53.450;15.496;2022-11-20T15:23:27;98772.34;;;-0.97;100.00
25722;BME280;13578;53.450;15.496;2022-11-20T15:26:28;98767.16;;;-1.00;100.00
25722;BME280;13578;53.450;15.496;2022-11-20T15:29:28;98768.03;;;-0.99;100.00
25722;BME280;13578;53.450;15.496;2022-11-20T15:32:29;98768.97;;;-1.00;100.00
25722;BME280;13578;53.450;15.496;2022-11-20T15:35:30;98761.31;;;-0.92;100.00
25722;BME280;13578;53.450;15.496;2022-11-20T15:38:30;98758.03;;;-0.97;100.00
25722;BME280;13578;53.450;15.496;2022-11-20T15:41:31;98758.78;;;-0.95;100.00
25722;BME280;13578;53.450;15.496;2022-11-20T15:44:31;98756.47;;;-1.01;100.00
25722;BME280;13578;53.450;15.496;2022-11-20T15:47:34;98758.97;;;-0.98;100.00
25722;BME280;13578;53.450;15.496;2022-11-20T15:51:05;98755.50;;;-1.00;100.00
25722;BME280;13578;53.450;15.496;2022-11-20T15:54:15;98760.16;;;-0.88;100.00
25722;BME280;13578;53.450;15.496;2022-11-20T15:57:18;98754.00;;;-0.90;100.00
25722;BME280;13578;53.450;15.496;2022-11-20T16:00:18;98752.38;;;-0.92;100.00
25722;BME280;13578;53.450;15.496;2022-11-20T16:03:19;98746.31;;;-0.96;100.00
25722;BME280;13578;53.450;15.496;2022-11-20T16:06:20;98738.03;;;-0.93;100.00
25722;BME280;13578;53.450;15.496;2022-11-20T16:09:21;98742.28;;;-0.89;100.00
25722;BME280;13578;53.450;15.496;2022-11-20T16:12:21;98735.69;;;-0.99;100.00
25722;BME280;13578;53.450;15.496;2022-11-20T16:15:40;98744.47;;;-0.96;100.00
25722;BME280;13578;53.450;15.496;2022-11-20T16:18:47;98745.94;;;-0.90;100.00
25722;BME280;13578;53.450;15.496;2022-11-20T16:21:47;98742.47;;;-0.92;100.00
25722;BME280;13578;53.450;15.496;2022-11-20T16:24:48;98734.00;;;-0.86;100.00
25722;BME280;13578;53.450;15.496;2022-11-20T16:27:48;98746.63;;;-0.86;100.00
25722;BME280;13578;53.450;15.496;2022-11-20T16:30:49;98739.00;;;-0.80;100.00
25722;BME280;13578;53.450;15.496;2022-11-20T16:33:51;98741.34;;;-0.73;100.00
25722;BME280;13578;53.450;15.496;2022-11-20T16:36:52;98731.88;;;-0.81;100.00
25722;BME280;13578;53.450;15.496;2022-11-20T16:39:54;98748.34;;;-0.85;100.00
25722;BME280;13578;53.450;15.496;2022-11-20T16:42:56;98741.13;;;-0.85;100.00
25722;BME280;13578;53.450;15.496;2022-11-20T16:45:57;98737.84;;;-0.90;100.00
25722;BME280;13578;53.450;15.496;2022-11-20T16:49:00;98737.25;;;-0.95;100.00
25722;BME280;13578;53.450;15.496;2022-11-20T16:52:01;98741.59;;;-0.92;100.00
25722;BME280;13578;53.450;15.496;2022-11-20T16:55:02;98744.38;;;-0.94;100.00
25722;BME280;13578;53.450;15.496;2022-11-20T16:58:02;98746.50;;;-0.85;100.00
25722;BME280;13578;53.450;15.496;2022-11-20T17:01:10;98743.91;;;-0.86;100.00
25722;BME280;13578;53.450;15.496;2022-11-20T17:04:11;98752.19;;;-0.89;100.00
25722;BME280;13578;53.450;15.496;2022-11-20T17:07:12;98745.72;;;-0.87;100.00